sensor_id;sensor_type;location;lat;lon;timestamp;pressure;altitude;pressure_sealevel;temperature
65290;BMP180;51893;59.754;10.110;2022-09-01T00:00:24;102943.80;;;11.50
65290;BMP180;51893;59.754;10.110;2022-09-01T00:03:02;102948.60;;;11.50
65290;BMP180;51893;59.754;10.110;2022-09-01T00:05:31;102953.80;;;11.60
65290;BMP180;51893;59.754;10.110;2022-09-01T00:07:59;102950.80;;;11.60
65290;BMP180;51893;59.754;10.110;2022-09-01T00:10:27;102948.40;;;11.60
65290;BMP180;51893;59.754;10.110;2022-09-01T00:12:55;102944.40;;;11.60
65290;BMP180;51893;59.754;10.110;2022-09-01T00:15:24;102949.00;;;11.50
65290;BMP180;51893;59.754;10.110;2022-09-01T00:17:52;102946.20;;;11.40
65290;BMP180;51893;59.754;10.110;2022-09-01T00:20:20;102943.80;;;11.40
65290;BMP180;51893;59.754;10.110;2022-09-01T00:22:48;102945.80;;;11.30
65290;BMP180;51893;59.754;10.110;2022-09-01T00:25:18;102951.00;;;11.20
65290;BMP180;51893;59.754;10.110;2022-09-01T00:27:48;102943.00;;;11.18
65290;BMP180;51893;59.754;10.110;2022-09-01T00:30:21;102944.40;;;11.20
65290;BMP180;51893;59.754;10.110;2022-09-01T00:32:49;102943.60;;;11.10
65290;BMP180;51893;59.754;10.110;2022-09-01T00:35:18;102939.80;;;11.10
65290;BMP180;51893;59.754;10.110;2022-09-01T00:37:46;102938.80;;;11.10
65290;BMP180;51893;59.754;10.110;2022-09-01T00:40:16;102932.40;;;11.10
65290;BMP180;51893;59.754;10.110;2022-09-01T00:42:45;102930.60;;;11.04
65290;BMP180;51893;59.754;10.110;2022-09-01T00:45:16;102932.60;;;11.06
65290;BMP180;51893;59.754;10.110;2022-09-01T00:47:43;102928.20;;;11.00
65290;BMP180;51893;59.754;10.110;2022-09-01T00:50:14;102917.20;;;10.90
65290;BMP180;51893;59.754;10.110;2022-09-01T00:52:51;102916.00;;;10.90
65290;BMP180;51893;59.754;10.110;2022-09-01T00:55:30;102916.00;;;10.80
65290;BMP180;51893;59.754;10.110;2022-09-01T00:58:00;102908.40;;;10.80
65290;BMP180;51893;59.754;10.110;2022-09-01T01:00:34;102915.60;;;10.80
65290;BMP180;51893;59.754;10.110;2022-09-01T01:03:10;102917.20;;;10.80
65290;BMP180;51893;59.754;10.110;2022-09-01T01:05:48;102915.40;;;10.80
65290;BMP180;51893;59.754;10.110;2022-09-01T01:08:26;102920.80;;;10.80
65290;BMP180;51893;59.754;10.110;2022-09-01T01:13:31;102921.60;;;10.70
65290;BMP180;51893;59.754;10.110;2022-09-01T01:16:08;102923.40;;;10.70
65290;BMP180;51893;59.754;10.110;2022-09-01T01:18:36;102927.40;;;10.60
65290;BMP180;51893;59.754;10.110;2022-09-01T01:21:09;102927.20;;;10.40
65290;BMP180;51893;59.754;10.110;2022-09-01T01:26:46;102934.00;;;10.30
65290;BMP180;51893;59.754;10.110;2022-09-01T01:29:15;102933.40;;;10.20
65290;BMP180;51893;59.754;10.110;2022-09-01T01:31:45;102938.60;;;10.12
65290;BMP180;51893;59.754;10.110;2022-09-01T01:34:16;102939.00;;;10.10
65290;BMP180;51893;59.754;10.110;2022-09-01T01:36:46;102940.60;;;10.00
65290;BMP180;51893;59.754;10.110;2022-09-01T01:39:22;102946.60;;;10.00
65290;BMP180;51893;59.754;10.110;2022-09-01T01:41:56;102944.40;;;10.00
65290;BMP180;51893;59.754;10.110;2022-09-01T01:44:26;102947.20;;;10.00
65290;BMP180;51893;59.754;10.110;2022-09-01T01:46:55;102939.60;;;10.00
65290;BMP180;51893;59.754;10.110;2022-09-01T01:49:26;102949.80;;;9.90
65290;BMP180;51893;59.754;10.110;2022-09-01T01:51:57;102942.60;;;9.80
65290;BMP180;51893;59.754;10.110;2022-09-01T01:54:27;102943.20;;;9.80
65290;BMP180;51893;59.754;10.110;2022-09-01T01:57:00;102948.60;;;9.80
65290;BMP180;51893;59.754;10.110;2022-09-01T01:59:31;102942.20;;;9.80
65290;BMP180;51893;59.754;10.110;2022-09-01T02:02:00;102940.20;;;9.90
65290;BMP180;51893;59.754;10.110;2022-09-01T02:04:30;102947.60;;;9.90
65290;BMP180;51893;59.754;10.110;2022-09-01T02:07:00;102943.00;;;9.90
65290;BMP180;51893;59.754;10.110;2022-09-01T02:09:28;102938.00;;;10.00
65290;BMP180;51893;59.754;10.110;2022-09-01T02:11:56;102942.00;;;10.00
65290;BMP180;51893;59.754;10.110;2022-09-01T02:14:25;102940.40;;;9.98
65290;BMP180;51893;59.754;10.110;2022-09-01T02:16:53;102940.80;;;9.90
65290;BMP180;51893;59.754;10.110;2022-09-01T02:19:22;102938.60;;;9.90
65290;BMP180;51893;59.754;10.110;2022-09-01T02:21:50;102938.80;;;9.90
65290;BMP180;51893;59.754;10.110;2022-09-01T02:24:23;102940.80;;;9.88
65290;BMP180;51893;59.754;10.110;2022-09-01T02:26:51;102933.60;;;9.90
65290;BMP180;51893;59.754;10.110;2022-09-01T02:29:22;102936.80;;;9.80
65290;BMP180;51893;59.754;10.110;2022-09-01T02:31:55;102932.00;;;9.76
65290;BMP180;51893;59.754;10.110;2022-09-01T02:34:25;102932.40;;;9.72
65290;BMP180;51893;59.754;10.110;2022-09-01T02:36:56;102928.80;;;9.80
65290;BMP180;51893;59.754;10.110;2022-09-01T02:39:30;102926.60;;;9.80
65290;BMP180;51893;59.754;10.110;2022-09-01T02:42:00;102929.00;;;9.80
65290;BMP180;51893;59.754;10.110;2022-09-01T02:44:29;102927.80;;;9.80
65290;BMP180;51893;59.754;10.110;2022-09-01T02:46:58;102930.00;;;9.80
65290;BMP180;51893;59.754;10.110;2022-09-01T02:49:27;102927.80;;;9.80
65290;BMP180;51893;59.754;10.110;2022-09-01T02:51:58;102922.80;;;9.70
65290;BMP180;51893;59.754;10.110;2022-09-01T02:54:31;102917.40;;;9.70
65290;BMP180;51893;59.754;10.110;2022-09-01T02:57:00;102918.40;;;9.70
65290;BMP180;51893;59.754;10.110;2022-09-01T02:59:28;102915.40;;;9.70
65290;BMP180;51893;59.754;10.110;2022-09-01T03:01:57;102919.20;;;9.60
65290;BMP180;51893;59.754;10.110;2022-09-01T03:04:25;102920.80;;;9.60
65290;BMP180;51893;59.754;10.110;2022-09-01T03:07:04;102914.20;;;9.62
65290;BMP180;51893;59.754;10.110;2022-09-01T03:09:33;102914.20;;;9.60
65290;BMP180;51893;59.754;10.110;2022-09-01T03:12:03;102916.40;;;9.50
65290;BMP180;51893;59.754;10.110;2022-09-01T03:14:33;102914.20;;;9.50
65290;BMP180;51893;59.754;10.110;2022-09-01T03:17:01;102915.00;;;9.50
65290;BMP180;51893;59.754;10.110;2022-09-01T03:19:29;102915.20;;;9.40
65290;BMP180;51893;59.754;10.110;2022-09-01T03:22:06;102917.00;;;9.30
65290;BMP180;51893;59.754;10.110;2022-09-01T03:24:34;102917.80;;;9.30
65290;BMP180;51893;59.754;10.110;2022-09-01T03:27:03;102918.20;;;9.30
65290;BMP180;51893;59.754;10.110;2022-09-01T03:29:30;102914.40;;;9.36
65290;BMP180;51893;59.754;10.110;2022-09-01T03:31:59;102916.00;;;9.40
65290;BMP180;51893;59.754;10.110;2022-09-01T03:34:26;102919.40;;;9.40
65290;BMP180;51893;59.754;10.110;2022-09-01T03:36:54;102915.80;;;9.30
65290;BMP180;51893;59.754;10.110;2022-09-01T03:39:23;102914.80;;;9.20
65290;BMP180;51893;59.754;10.110;2022-09-01T03:41:50;102912.80;;;9.20
65290;BMP180;51893;59.754;10.110;2022-09-01T03:44:19;102913.80;;;9.20
65290;BMP180;51893;59.754;10.110;2022-09-01T03:46:46;102909.00;;;9.20
65290;BMP180;51893;59.754;10.110;2022-09-01T03:49:14;102908.60;;;9.20
65290;BMP180;51893;59.754;10.110;2022-09-01T03:51:51;102907.40;;;9.20
65290;BMP180;51893;59.754;10.110;2022-09-01T03:54:23;102905.00;;;9.20
65290;BMP180;51893;59.754;10.110;2022-09-01T03:56:55;102903.40;;;9.20
65290;BMP180;51893;59.754;10.110;2022-09-01T03:59:24;102902.60;;;9.10
65290;BMP180;51893;59.754;10.110;2022-09-01T04:01:53;102901.00;;;9.10
65290;BMP180;51893;59.754;10.110;2022-09-01T04:04:21;102899.60;;;9.10
65290;BMP180;51893;59.754;10.110;2022-09-01T04:06:49;102901.20;;;9.10
65290;BMP180;51893;59.754;10.110;2022-09-01T04:09:17;102897.20;;;9.10
65290;BMP180;51893;59.754;10.110;2022-09-01T04:11:44;102896.60;;;9.10
65290;BMP180;51893;59.754;10.110;2022-09-01T04:14:14;102897.60;;;9.10
65290;BMP180;51893;59.754;10.110;2022-09-01T04:16:43;102899.00;;;9.10
65290;BMP180;51893;59.754;10.110;2022-09-01T04:19:35;102904.00;;;9.10
65290;BMP180;51893;59.754;10.110;2022-09-01T04:22:04;102905.20;;;9.10
65290;BMP180;51893;59.754;10.110;2022-09-01T04:24:34;102904.20;;;9.04
65290;BMP180;51893;59.754;10.110;2022-09-01T04:27:02;102902.00;;;9.02
65290;BMP180;51893;59.754;10.110;2022-09-01T04:29:31;102904.20;;;9.10
65290;BMP180;51893;59.754;10.110;2022-09-01T04:32:07;102907.60;;;9.10
65290;BMP180;51893;59.754;10.110;2022-09-01T04:34:38;102906.40;;;9.00
65290;BMP180;51893;59.754;10.110;2022-09-01T04:37:13;102905.60;;;9.00
65290;BMP180;51893;59.754;10.110;2022-09-01T04:39:42;102905.80;;;9.00
65290;BMP180;51893;59.754;10.110;2022-09-01T04:42:20;102905.60;;;9.00
65290;BMP180;51893;59.754;10.110;2022-09-01T04:44:52;102907.40;;;9.00
65290;BMP180;51893;59.754;10.110;2022-09-01T04:47:21;102906.00;;;8.90
65290;BMP180;51893;59.754;10.110;2022-09-01T04:50:08;102909.80;;;8.90
65290;BMP180;51893;59.754;10.110;2022-09-01T04:52:43;102908.80;;;8.80
65290;BMP180;51893;59.754;10.110;2022-09-01T04:55:13;102906.20;;;8.70
65290;BMP180;51893;59.754;10.110;2022-09-01T04:57:48;102909.80;;;8.70
65290;BMP180;51893;59.754;10.110;2022-09-01T05:00:19;102904.00;;;8.70
65290;BMP180;51893;59.754;10.110;2022-09-01T05:02:58;102905.40;;;8.70
65290;BMP180;51893;59.754;10.110;2022-09-01T05:05:43;102903.00;;;8.80
65290;BMP180;51893;59.754;10.110;2022-09-01T05:08:18;102900.80;;;8.70
65290;BMP180;51893;59.754;10.110;2022-09-01T05:10:52;102892.20;;;8.80
65290;BMP180;51893;59.754;10.110;2022-09-01T05:13:22;102890.60;;;8.80
65290;BMP180;51893;59.754;10.110;2022-09-01T05:16:09;102887.60;;;8.80
65290;BMP180;51893;59.754;10.110;2022-09-01T05:18:44;102885.80;;;8.80
65290;BMP180;51893;59.754;10.110;2022-09-01T05:21:20;102886.40;;;8.88
65290;BMP180;51893;59.754;10.110;2022-09-01T05:23:51;102884.60;;;8.90
65290;BMP180;51893;59.754;10.110;2022-09-01T05:26:28;102877.00;;;8.90
65290;BMP180;51893;59.754;10.110;2022-09-01T05:29:03;102882.00;;;9.00
65290;BMP180;51893;59.754;10.110;2022-09-01T05:31:41;102879.60;;;9.04
65290;BMP180;51893;59.754;10.110;2022-09-01T05:34:10;102878.20;;;9.10
65290;BMP180;51893;59.754;10.110;2022-09-01T05:36:45;102872.80;;;9.20
65290;BMP180;51893;59.754;10.110;2022-09-01T05:39:17;102872.20;;;9.20
65290;BMP180;51893;59.754;10.110;2022-09-01T05:41:46;102872.60;;;9.30
65290;BMP180;51893;59.754;10.110;2022-09-01T05:44:16;102874.00;;;9.30
65290;BMP180;51893;59.754;10.110;2022-09-01T05:46:45;102869.80;;;9.40
65290;BMP180;51893;59.754;10.110;2022-09-01T05:49:14;102868.20;;;9.40
65290;BMP180;51893;59.754;10.110;2022-09-01T05:51:49;102866.00;;;9.50
65290;BMP180;51893;59.754;10.110;2022-09-01T05:54:21;102861.20;;;9.50
65290;BMP180;51893;59.754;10.110;2022-09-01T05:56:54;102863.80;;;9.60
65290;BMP180;51893;59.754;10.110;2022-09-01T05:59:45;102862.00;;;9.70
65290;BMP180;51893;59.754;10.110;2022-09-01T06:02:23;102861.60;;;9.70
65290;BMP180;51893;59.754;10.110;2022-09-01T06:04:53;102857.80;;;9.70
65290;BMP180;51893;59.754;10.110;2022-09-01T06:07:22;102859.20;;;9.70
65290;BMP180;51893;59.754;10.110;2022-09-01T06:09:56;102860.20;;;9.70
65290;BMP180;51893;59.754;10.110;2022-09-01T06:12:24;102854.60;;;9.70
65290;BMP180;51893;59.754;10.110;2022-09-01T06:14:55;102853.20;;;9.80
65290;BMP180;51893;59.754;10.110;2022-09-01T06:17:25;102856.60;;;9.88
65290;BMP180;51893;59.754;10.110;2022-09-01T06:19:55;102855.80;;;9.92
65290;BMP180;51893;59.754;10.110;2022-09-01T06:22:28;102857.20;;;10.00
65290;BMP180;51893;59.754;10.110;2022-09-01T06:24:56;102857.00;;;10.00
65290;BMP180;51893;59.754;10.110;2022-09-01T06:27:30;102858.20;;;10.04
65290;BMP180;51893;59.754;10.110;2022-09-01T06:29:59;102861.00;;;10.00
65290;BMP180;51893;59.754;10.110;2022-09-01T06:32:26;102861.60;;;10.00
65290;BMP180;51893;59.754;10.110;2022-09-01T06:34:55;102858.80;;;10.08
65290;BMP180;51893;59.754;10.110;2022-09-01T06:37:25;102859.00;;;10.10
65290;BMP180;51893;59.754;10.110;2022-09-01T06:39:53;102854.60;;;10.10
65290;BMP180;51893;59.754;10.110;2022-09-01T06:42:21;102856.20;;;10.14
65290;BMP180;51893;59.754;10.110;2022-09-01T06:44:50;102852.60;;;10.20
65290;BMP180;51893;59.754;10.110;2022-09-01T06:47:19;102849.20;;;10.30
65290;BMP180;51893;59.754;10.110;2022-09-01T06:49:46;102845.40;;;10.40
65290;BMP180;51893;59.754;10.110;2022-09-01T06:52:14;102849.40;;;10.50
65290;BMP180;51893;59.754;10.110;2022-09-01T06:54:42;102846.20;;;10.60
65290;BMP180;51893;59.754;10.110;2022-09-01T06:57:10;102841.60;;;10.70
65290;BMP180;51893;59.754;10.110;2022-09-01T06:59:58;102845.20;;;10.80
65290;BMP180;51893;59.754;10.110;2022-09-01T07:02:27;102842.60;;;10.80
65290;BMP180;51893;59.754;10.110;2022-09-01T07:05:00;102844.00;;;10.90
65290;BMP180;51893;59.754;10.110;2022-09-01T07:07:29;102839.60;;;10.90
65290;BMP180;51893;59.754;10.110;2022-09-01T07:10:26;102844.80;;;10.92
65290;BMP180;51893;59.754;10.110;2022-09-01T07:12:56;102841.60;;;11.00
65290;BMP180;51893;59.754;10.110;2022-09-01T07:15:38;102841.60;;;11.10
65290;BMP180;51893;59.754;10.110;2022-09-01T07:18:28;102841.20;;;11.20
65290;BMP180;51893;59.754;10.110;2022-09-01T07:20:58;102839.20;;;11.30
65290;BMP180;51893;59.754;10.110;2022-09-01T07:23:47;102842.40;;;11.40
65290;BMP180;51893;59.754;10.110;2022-09-01T07:26:35;102841.80;;;11.50
65290;BMP180;51893;59.754;10.110;2022-09-01T07:29:14;102839.80;;;11.60
65290;BMP180;51893;59.754;10.110;2022-09-01T07:31:43;102842.20;;;11.70
65290;BMP180;51893;59.754;10.110;2022-09-01T07:34:31;102841.20;;;11.76
65290;BMP180;51893;59.754;10.110;2022-09-01T07:37:07;102843.20;;;11.80
65290;BMP180;51893;59.754;10.110;2022-09-01T07:39:55;102839.60;;;11.80
65290;BMP180;51893;59.754;10.110;2022-09-01T07:42:46;102840.00;;;11.94
65290;BMP180;51893;59.754;10.110;2022-09-01T07:45:29;102837.80;;;12.10
65290;BMP180;51893;59.754;10.110;2022-09-01T07:47:58;102841.80;;;12.20
65290;BMP180;51893;59.754;10.110;2022-09-01T07:50:33;102843.00;;;12.30
65290;BMP180;51893;59.754;10.110;2022-09-01T07:53:28;102837.60;;;12.40
65290;BMP180;51893;59.754;10.110;2022-09-01T07:56:08;102838.00;;;12.50
65290;BMP180;51893;59.754;10.110;2022-09-01T07:58:38;102840.60;;;12.64
65290;BMP180;51893;59.754;10.110;2022-09-01T08:01:18;102840.40;;;12.80
65290;BMP180;51893;59.754;10.110;2022-09-01T08:03:52;102840.40;;;12.90
65290;BMP180;51893;59.754;10.110;2022-09-01T08:06:23;102837.60;;;13.00
65290;BMP180;51893;59.754;10.110;2022-09-01T08:08:57;102837.60;;;13.10
65290;BMP180;51893;59.754;10.110;2022-09-01T08:11:29;102834.20;;;13.18
65290;BMP180;51893;59.754;10.110;2022-09-01T08:14:17;102833.40;;;13.26
65290;BMP180;51893;59.754;10.110;2022-09-01T08:16:46;102833.40;;;13.40
65290;BMP180;51893;59.754;10.110;2022-09-01T08:19:21;102839.40;;;13.50
65290;BMP180;51893;59.754;10.110;2022-09-01T08:21:49;102836.20;;;13.70
65290;BMP180;51893;59.754;10.110;2022-09-01T08:24:17;102838.80;;;13.90
65290;BMP180;51893;59.754;10.110;2022-09-01T08:26:46;102842.20;;;14.00
65290;BMP180;51893;59.754;10.110;2022-09-01T08:29:13;102843.60;;;14.18
65290;BMP180;51893;59.754;10.110;2022-09-01T08:31:41;102845.40;;;14.38
65290;BMP180;51893;59.754;10.110;2022-09-01T08:34:09;102848.40;;;14.60
65290;BMP180;51893;59.754;10.110;2022-09-01T08:36:39;102852.60;;;14.74
65290;BMP180;51893;59.754;10.110;2022-09-01T08:39:07;102854.40;;;14.90
65290;BMP180;51893;59.754;10.110;2022-09-01T08:45:02;102855.00;;;15.22
65290;BMP180;51893;59.754;10.110;2022-09-01T08:47:32;102855.40;;;15.40
65290;BMP180;51893;59.754;10.110;2022-09-01T08:50:21;102861.80;;;15.60
65290;BMP180;51893;59.754;10.110;2022-09-01T08:53:28;102868.20;;;15.70
65290;BMP180;51893;59.754;10.110;2022-09-01T08:55:59;102863.60;;;15.80
65290;BMP180;51893;59.754;10.110;2022-09-01T08:58:30;102866.40;;;15.98
65290;BMP180;51893;59.754;10.110;2022-09-01T09:01:06;102869.60;;;16.06
65290;BMP180;51893;59.754;10.110;2022-09-01T09:06:14;102874.20;;;16.30
65290;BMP180;51893;59.754;10.110;2022-09-01T09:09:00;102872.60;;;16.44
65290;BMP180;51893;59.754;10.110;2022-09-01T09:12:05;102873.40;;;16.58
65290;BMP180;51893;59.754;10.110;2022-09-01T09:17:33;102872.60;;;16.80
65290;BMP180;51893;59.754;10.110;2022-09-01T09:20:04;102874.40;;;16.90
65290;BMP180;51893;59.754;10.110;2022-09-01T09:22:33;102874.40;;;17.00
65290;BMP180;51893;59.754;10.110;2022-09-01T09:27:39;102872.60;;;17.10
65290;BMP180;51893;59.754;10.110;2022-09-01T09:30:27;102873.00;;;17.12
65290;BMP180;51893;59.754;10.110;2022-09-01T09:32:58;102869.80;;;17.30
65290;BMP180;51893;59.754;10.110;2022-09-01T09:35:47;102871.80;;;17.50
65290;BMP180;51893;59.754;10.110;2022-09-01T09:38:24;102875.80;;;17.60
65290;BMP180;51893;59.754;10.110;2022-09-01T09:41:07;102875.60;;;17.60
65290;BMP180;51893;59.754;10.110;2022-09-01T09:44:15;102873.00;;;17.70
65290;BMP180;51893;59.754;10.110;2022-09-01T09:46:46;102863.80;;;17.84
65290;BMP180;51893;59.754;10.110;2022-09-01T09:49:31;102862.40;;;17.90
65290;BMP180;51893;59.754;10.110;2022-09-01T09:54:35;102857.60;;;18.20
65290;BMP180;51893;59.754;10.110;2022-09-01T09:57:11;102852.20;;;18.30
65290;BMP180;51893;59.754;10.110;2022-09-01T10:00:00;102851.20;;;18.40
65290;BMP180;51893;59.754;10.110;2022-09-01T10:02:39;102855.80;;;18.50
65290;BMP180;51893;59.754;10.110;2022-09-01T10:05:41;102853.60;;;18.56
65290;BMP180;51893;59.754;10.110;2022-09-01T10:08:35;102848.20;;;18.70
65290;BMP180;51893;59.754;10.110;2022-09-01T10:11:06;102849.80;;;18.80
65290;BMP180;51893;59.754;10.110;2022-09-01T10:13:34;102848.00;;;18.88
65290;BMP180;51893;59.754;10.110;2022-09-01T10:16:13;102847.40;;;18.90
65290;BMP180;51893;59.754;10.110;2022-09-01T10:18:49;102839.20;;;18.90
65290;BMP180;51893;59.754;10.110;2022-09-01T10:21:32;102835.20;;;18.90
65290;BMP180;51893;59.754;10.110;2022-09-01T10:26:53;102823.00;;;18.90
65290;BMP180;51893;59.754;10.110;2022-09-01T10:32:09;102816.80;;;19.20
65290;BMP180;51893;59.754;10.110;2022-09-01T10:34:59;102814.60;;;19.50
65290;BMP180;51893;59.754;10.110;2022-09-01T10:37:30;102810.00;;;19.60
65290;BMP180;51893;59.754;10.110;2022-09-01T10:45:48;102808.60;;;19.90
65290;BMP180;51893;59.754;10.110;2022-09-01T10:48:29;102804.00;;;20.00
65290;BMP180;51893;59.754;10.110;2022-09-01T10:53:57;102795.60;;;20.20
65290;BMP180;51893;59.754;10.110;2022-09-01T10:56:39;102794.80;;;20.30
65290;BMP180;51893;59.754;10.110;2022-09-01T11:10:30;102781.20;;;20.80
65290;BMP180;51893;59.754;10.110;2022-09-01T11:19:34;102772.40;;;21.20
65290;BMP180;51893;59.754;10.110;2022-09-01T11:22:20;102771.80;;;21.30
65290;BMP180;51893;59.754;10.110;2022-09-01T11:25:09;102767.60;;;21.34
65290;BMP180;51893;59.754;10.110;2022-09-01T11:27:57;102772.60;;;21.40
65290;BMP180;51893;59.754;10.110;2022-09-01T11:30:46;102768.20;;;21.40
65290;BMP180;51893;59.754;10.110;2022-09-01T11:34:08;102761.60;;;21.50
65290;BMP180;51893;59.754;10.110;2022-09-01T11:42:42;102752.00;;;21.90
65290;BMP180;51893;59.754;10.110;2022-09-01T11:45:24;102746.60;;;21.90
65290;BMP180;51893;59.754;10.110;2022-09-01T11:48:09;102745.20;;;22.00
65290;BMP180;51893;59.754;10.110;2022-09-01T11:50:41;102737.40;;;22.08
65290;BMP180;51893;59.754;10.110;2022-09-01T11:53:20;102729.00;;;22.20
65290;BMP180;51893;59.754;10.110;2022-09-01T11:55:52;102729.60;;;22.30
65290;BMP180;51893;59.754;10.110;2022-09-01T12:01:31;102725.40;;;22.30
65290;BMP180;51893;59.754;10.110;2022-09-01T12:04:20;102718.20;;;22.40
65290;BMP180;51893;59.754;10.110;2022-09-01T12:07:10;102714.60;;;22.50
65290;BMP180;51893;59.754;10.110;2022-09-01T12:09:45;102716.40;;;22.68
65290;BMP180;51893;59.754;10.110;2022-09-01T12:12:37;102709.80;;;22.70
65290;BMP180;51893;59.754;10.110;2022-09-01T12:15:10;102704.40;;;22.80
65290;BMP180;51893;59.754;10.110;2022-09-01T12:17:40;102709.20;;;22.88
65290;BMP180;51893;59.754;10.110;2022-09-01T12:22:59;102710.00;;;22.90
65290;BMP180;51893;59.754;10.110;2022-09-01T12:25:33;102705.20;;;22.90
65290;BMP180;51893;59.754;10.110;2022-09-01T12:28:03;102708.20;;;22.90
65290;BMP180;51893;59.754;10.110;2022-09-01T12:30:33;102702.00;;;22.90
65290;BMP180;51893;59.754;10.110;2022-09-01T12:33:11;102699.20;;;22.86
65290;BMP180;51893;59.754;10.110;2022-09-01T12:42:06;102699.80;;;23.02
65290;BMP180;51893;59.754;10.110;2022-09-01T12:47:10;102682.40;;;23.00
65290;BMP180;51893;59.754;10.110;2022-09-01T12:49:46;102681.00;;;23.10
65290;BMP180;51893;59.754;10.110;2022-09-01T12:57:34;102672.80;;;23.30
65290;BMP180;51893;59.754;10.110;2022-09-01T13:02:43;102668.00;;;23.30
65290;BMP180;51893;59.754;10.110;2022-09-01T13:08:16;102659.20;;;23.40
65290;BMP180;51893;59.754;10.110;2022-09-01T13:10:58;102657.80;;;23.40
65290;BMP180;51893;59.754;10.110;2022-09-01T13:13:28;102657.80;;;23.50
65290;BMP180;51893;59.754;10.110;2022-09-01T13:15:58;102656.60;;;23.50
65290;BMP180;51893;59.754;10.110;2022-09-01T13:18:41;102653.20;;;23.60
65290;BMP180;51893;59.754;10.110;2022-09-01T13:21:31;102654.20;;;23.70
65290;BMP180;51893;59.754;10.110;2022-09-01T13:24:03;102647.40;;;23.70
65290;BMP180;51893;59.754;10.110;2022-09-01T13:26:33;102646.60;;;23.80
65290;BMP180;51893;59.754;10.110;2022-09-01T13:29:02;102646.80;;;23.80
65290;BMP180;51893;59.754;10.110;2022-09-01T13:31:30;102640.80;;;23.80
65290;BMP180;51893;59.754;10.110;2022-09-01T13:33:59;102641.40;;;23.80
65290;BMP180;51893;59.754;10.110;2022-09-01T13:36:47;102639.00;;;23.90
65290;BMP180;51893;59.754;10.110;2022-09-01T13:39:19;102642.40;;;24.00
65290;BMP180;51893;59.754;10.110;2022-09-01T13:41:49;102634.20;;;24.00
65290;BMP180;51893;59.754;10.110;2022-09-01T13:44:17;102628.00;;;24.10
65290;BMP180;51893;59.754;10.110;2022-09-01T13:46:45;102625.00;;;24.10
65290;BMP180;51893;59.754;10.110;2022-09-01T13:49:34;102624.60;;;24.10
65290;BMP180;51893;59.754;10.110;2022-09-01T13:52:22;102625.60;;;24.14
65290;BMP180;51893;59.754;10.110;2022-09-01T13:54:50;102625.60;;;24.00
65290;BMP180;51893;59.754;10.110;2022-09-01T13:57:18;102623.20;;;24.02
65290;BMP180;51893;59.754;10.110;2022-09-01T13:59:46;102621.60;;;24.10
65290;BMP180;51893;59.754;10.110;2022-09-01T14:02:14;102619.40;;;24.10
65290;BMP180;51893;59.754;10.110;2022-09-01T14:04:42;102616.00;;;24.10
65290;BMP180;51893;59.754;10.110;2022-09-01T14:07:11;102613.40;;;24.20
65290;BMP180;51893;59.754;10.110;2022-09-01T14:09:39;102606.00;;;24.20
65290;BMP180;51893;59.754;10.110;2022-09-01T14:12:06;102600.00;;;24.20
65290;BMP180;51893;59.754;10.110;2022-09-01T14:14:34;102601.40;;;24.20
65290;BMP180;51893;59.754;10.110;2022-09-01T14:17:22;102597.00;;;24.18
65290;BMP180;51893;59.754;10.110;2022-09-01T14:19:51;102595.20;;;24.10
65290;BMP180;51893;59.754;10.110;2022-09-01T14:22:19;102598.20;;;24.10
65290;BMP180;51893;59.754;10.110;2022-09-01T14:24:46;102596.20;;;24.10
65290;BMP180;51893;59.754;10.110;2022-09-01T14:27:14;102587.60;;;24.18
65290;BMP180;51893;59.754;10.110;2022-09-01T14:29:48;102581.40;;;24.16
65290;BMP180;51893;59.754;10.110;2022-09-01T14:32:22;102579.20;;;24.20
65290;BMP180;51893;59.754;10.110;2022-09-01T14:34:55;102576.80;;;24.18
65290;BMP180;51893;59.754;10.110;2022-09-01T14:37:24;102575.00;;;24.10
65290;BMP180;51893;59.754;10.110;2022-09-01T14:39:54;102567.00;;;24.12
65290;BMP180;51893;59.754;10.110;2022-09-01T14:42:23;102562.80;;;24.20
65290;BMP180;51893;59.754;10.110;2022-09-01T14:44:56;102562.60;;;24.18
65290;BMP180;51893;59.754;10.110;2022-09-01T14:47:26;102559.00;;;24.20
65290;BMP180;51893;59.754;10.110;2022-09-01T14:49:55;102554.40;;;24.10
65290;BMP180;51893;59.754;10.110;2022-09-01T14:52:23;102552.00;;;24.10
65290;BMP180;51893;59.754;10.110;2022-09-01T14:54:51;102557.60;;;24.04
65290;BMP180;51893;59.754;10.110;2022-09-01T14:57:18;102552.20;;;24.00
65290;BMP180;51893;59.754;10.110;2022-09-01T15:00:08;102553.80;;;24.10
65290;BMP180;51893;59.754;10.110;2022-09-01T15:02:41;102551.20;;;24.00
65290;BMP180;51893;59.754;10.110;2022-09-01T15:05:11;102545.40;;;24.06
65290;BMP180;51893;59.754;10.110;2022-09-01T15:07:41;102542.20;;;24.00
65290;BMP180;51893;59.754;10.110;2022-09-01T15:10:13;102541.80;;;24.00
65290;BMP180;51893;59.754;10.110;2022-09-01T15:12:54;102536.80;;;23.94
65290;BMP180;51893;59.754;10.110;2022-09-01T15:15:25;102536.00;;;23.90
65290;BMP180;51893;59.754;10.110;2022-09-01T15:17:54;102534.20;;;23.80
65290;BMP180;51893;59.754;10.110;2022-09-01T15:20:23;102533.60;;;23.80
65290;BMP180;51893;59.754;10.110;2022-09-01T15:25:43;102534.60;;;23.80
65290;BMP180;51893;59.754;10.110;2022-09-01T15:28:11;102536.40;;;23.80
65290;BMP180;51893;59.754;10.110;2022-09-01T15:30:40;102529.80;;;23.70
65290;BMP180;51893;59.754;10.110;2022-09-01T15:33:11;102530.40;;;23.70
65290;BMP180;51893;59.754;10.110;2022-09-01T15:35:44;102528.80;;;23.80
65290;BMP180;51893;59.754;10.110;2022-09-01T15:38:14;102527.40;;;23.80
65290;BMP180;51893;59.754;10.110;2022-09-01T15:40:46;102525.60;;;23.90
65290;BMP180;51893;59.754;10.110;2022-09-01T15:43:27;102528.60;;;23.94
65290;BMP180;51893;59.754;10.110;2022-09-01T15:45:57;102525.20;;;24.00
65290;BMP180;51893;59.754;10.110;2022-09-01T15:48:27;102526.00;;;24.04
65290;BMP180;51893;59.754;10.110;2022-09-01T15:53:54;102526.80;;;23.80